Terminal Aerodrome Forecast
Issued by NWS Sterling, VA

Current Version | Previous Version | Graphics & Text | Print | Product List | Glossary On
Versions: 1 2 3 4 5 6 7 8 9 10 11 12 13 14 15 16 17 18 19 20 21 22
000
FTUS41 KLWX 252059 AAA
TAFIAD
TAF AMD
KIAD 252059Z 2521/2624 VRB03KT P6SM -RA OVC060
     FM260000 00000KT P6SM -RA OVC050
     FM260200 00000KT 4SM -RA OVC008
     FM260600 VRB03KT P6SM OVC015
     FM261500 36005KT P6SM BKN090
     FM262100 34007KT P6SM SCT250=

USA.gov is the U.S. government's official web portal to all federal, state and local government web resources and services.